Time;durP1;ratioP1;P1;durP2;ratioP2;P2;SDS_P1;SDS_P2;PMS_P1;PMS_P2;Temp;Humidity;BMP_temperature;BMP_pressure;BME280_temperature;BME280_humidity;BME280_pressure;Samples;Min_cycle;Max_cycle;Signal;HPM_P1;HPM_P2
2022/02/27 00:02:54;;;;;;;31.33;24.63;;;;;;;;;;6208535;28;20236;-69
2022/02/27 00:06:14;;;;;;;22.30;17.80;;;;;;;;;;6209750;28;20233;-68
2022/02/27 00:09:37;;;;;;;15.80;12.67;;;;;;;;;;6208272;28;20241;-68
2022/02/27 00:12:59;;;;;;;9.63;7.20;;;;;;;;;;6204846;28;20236;-68
2022/02/27 00:16:20;;;;;;;7.70;6.33;;;;;;;;;;6207044;28;20233;-68
2022/02/27 00:19:42;;;;;;;32.63;25.67;;;;;;;;;;6206109;28;20230;-67
2022/02/27 00:23:02;;;;;;;32.27;23.53;;;;;;;;;;6210893;28;20225;-68
2022/02/27 00:26:23;;;;;;;26.83;22.40;;;;;;;;;;6201747;28;20832;-68
2022/02/27 00:29:45;;;;;;;23.10;17.77;;;;;;;;;;6206006;28;22276;-69
2022/02/27 00:33:06;;;;;;;23.33;16.93;;;;;;;;;;6223060;28;20222;-68
2022/02/27 00:36:27;;;;;;;22.77;19.10;;;;;;;;;;6197584;28;20648;-69
2022/02/27 00:39:51;;;;;;;24.50;18.40;;;;;;;;;;6206927;28;20872;-69
2022/02/27 00:43:12;;;;;;;39.80;30.60;;;;;;;;;;6184365;28;20233;-68
2022/02/27 00:46:34;;;;;;;18.13;14.37;;;;;;;;;;6202607;28;20320;-68
2022/02/27 00:49:55;;;;;;;6.90;5.67;;;;;;;;;;6212496;28;20324;-68
2022/02/27 00:53:15;;;;;;;5.13;4.07;;;;;;;;;;6212558;28;20256;-68
2022/02/27 00:56:35;;;;;;;26.87;20.43;;;;;;;;;;6208952;28;20309;-68
2022/02/27 00:59:57;;;;;;;13.30;11.23;;;;;;;;;;6191591;28;20264;-68
2022/02/27 01:03:19;;;;;;;36.50;27.67;;;;;;;;;;6205162;28;20224;-68
2022/02/27 01:06:40;;;;;;;20.93;16.07;;;;;;;;;;6208862;28;21102;-69
2022/02/27 01:10:00;;;;;;;34.47;29.60;;;;;;;;;;6206486;28;20949;-69
2022/02/27 01:13:21;;;;;;;11.83;8.33;;;;;;;;;;6206970;28;20308;-68
2022/02/27 01:16:42;;;;;;;6.10;4.87;;;;;;;;;;6199657;28;20233;-68
2022/02/27 01:20:05;;;;;;;6.23;4.43;;;;;;;;;;6210273;28;20229;-69
2022/02/27 01:23:26;;;;;;;10.20;5.23;;;;;;;;;;6202491;28;20237;-68
2022/02/27 01:26:46;;;;;;;5.57;4.07;;;;;;;;;;6207017;28;20239;-67
2022/02/27 01:30:07;;;;;;;32.90;25.47;;;;;;;;;;6208364;28;20229;-68
2022/02/27 01:33:28;;;;;;;56.27;37.53;;;;;;;;;;6208784;28;20563;-69
2022/02/27 01:36:51;;;;;;;29.07;20.40;;;;;;;;;;6208216;28;20683;-69
2022/02/27 01:40:14;;;;;;;75.27;51.30;;;;;;;;;;6205548;28;20316;-69
2022/02/27 01:43:34;;;;;;;40.57;26.87;;;;;;;;;;6203486;28;20317;-68
2022/02/27 01:46:59;;;;;;;34.47;23.60;;;;;;;;;;6205264;28;20515;-68
2022/02/27 01:50:20;;;;;;;25.77;21.07;;;;;;;;;;6193501;28;20233;-68
2022/02/27 01:53:42;;;;;;;10.37;7.97;;;;;;;;;;6194383;28;20240;-68
2022/02/27 01:57:03;;;;;;;6.07;5.30;;;;;;;;;;6205191;28;20233;-68
2022/02/27 02:00:25;;;;;;;4.67;4.07;;;;;;;;;;6203419;28;20233;-67
2022/02/27 02:03:45;;;;;;;5.43;4.90;;;;;;;;;;6206203;28;20225;-68
2022/02/27 02:07:06;;;;;;;5.60;4.97;;;;;;;;;;6207598;28;20234;-68
2022/02/27 02:10:28;;;;;;;5.97;4.60;;;;;;;;;;6204828;28;20241;-68
2022/02/27 02:13:54;;;;;;;5.50;4.60;;;;;;;;;;6201721;28;20229;-68
2022/02/27 02:17:15;;;;;;;4.60;4.00;;;;;;;;;;6203577;28;20229;-68
2022/02/27 02:20:38;;;;;;;5.73;3.97;;;;;;;;;;6203713;28;20233;-67
2022/02/27 02:23:58;;;;;;;5.87;4.07;;;;;;;;;;6205520;28;20331;-69
2022/02/27 02:27:19;;;;;;;6.47;3.97;;;;;;;;;;6204286;28;20229;-68
2022/02/27 02:30:39;;;;;;;5.00;3.83;;;;;;;;;;6214988;28;20237;-68
2022/02/27 02:34:03;;;;;;;4.80;3.67;;;;;;;;;;6208830;28;20619;-67
2022/02/27 02:37:24;;;;;;;5.60;3.87;;;;;;;;;;6205060;28;20261;-68
2022/02/27 02:40:45;;;;;;;5.63;4.20;;;;;;;;;;6202164;28;20994;-67
2022/02/27 02:44:07;;;;;;;5.67;4.20;;;;;;;;;;6204603;28;20658;-68
2022/02/27 02:47:28;;;;;;;4.07;3.67;;;;;;;;;;6200133;28;20233;-68
2022/02/27 02:50:48;;;;;;;4.37;3.60;;;;;;;;;;6224229;28;20252;-68
2022/02/27 02:54:11;;;;;;;4.20;3.80;;;;;;;;;;6207399;28;20234;-68
2022/02/27 02:57:31;;;;;;;6.23;4.77;;;;;;;;;;6211432;28;20225;-68
2022/02/27 03:00:52;;;;;;;4.33;3.83;;;;;;;;;;6193737;28;21372;-66
2022/02/27 03:04:12;;;;;;;7.63;4.03;;;;;;;;;;6208650;28;20526;-69
2022/02/27 03:07:33;;;;;;;4.57;4.17;;;;;;;;;;6199508;28;20222;-68
2022/02/27 03:10:54;;;;;;;5.87;4.50;;;;;;;;;;6208547;28;20248;-68
2022/02/27 03:14:15;;;;;;;4.40;3.40;;;;;;;;;;6208613;28;20533;-67
2022/02/27 03:17:36;;;;;;;4.40;3.70;;;;;;;;;;6211105;28;20233;-67
2022/02/27 03:20:59;;;;;;;4.97;3.70;;;;;;;;;;6212460;28;20229;-68
2022/02/27 03:24:19;;;;;;;5.90;4.03;;;;;;;;;;6210418;28;20229;-68
2022/02/27 03:27:41;;;;;;;6.53;4.30;;;;;;;;;;6207817;28;20256;-67
2022/02/27 03:31:02;;;;;;;5.73;4.03;;;;;;;;;;6206719;28;20226;-68
2022/02/27 03:34:23;;;;;;;3.60;3.30;;;;;;;;;;6198899;28;20245;-68
2022/02/27 03:37:43;;;;;;;4.40;3.53;;;;;;;;;;6211991;28;20233;-68
2022/02/27 03:41:04;;;;;;;4.17;3.47;;;;;;;;;;6200114;28;20611;-68
2022/02/27 03:44:26;;;;;;;4.80;3.10;;;;;;;;;;6205552;28;20229;-68
2022/02/27 03:47:47;;;;;;;6.37;3.37;;;;;;;;;;6204857;28;20252;-68
2022/02/27 03:51:08;;;;;;;4.93;3.73;;;;;;;;;;6206809;28;20229;-67
2022/02/27 03:54:29;;;;;;;5.57;4.10;;;;;;;;;;6208103;28;20233;-67
2022/02/27 03:57:49;;;;;;;4.13;3.57;;;;;;;;;;6209633;28;20226;-67
2022/02/27 04:01:11;;;;;;;5.17;3.53;;;;;;;;;;6202536;28;20217;-68
2022/02/27 04:04:31;;;;;;;4.87;3.50;;;;;;;;;;6208316;28;20534;-68
2022/02/27 04:07:52;;;;;;;5.27;3.63;;;;;;;;;;6212399;28;20344;-69
2022/02/27 04:11:13;;;;;;;5.70;3.57;;;;;;;;;;6208427;28;20236;-67
2022/02/27 04:14:33;;;;;;;3.43;3.07;;;;;;;;;;6205715;28;20225;-68
2022/02/27 04:17:55;;;;;;;5.23;4.20;;;;;;;;;;6208985;28;20240;-67
2022/02/27 04:21:15;;;;;;;4.40;3.77;;;;;;;;;;6210546;28;20234;-68
2022/02/27 04:24:36;;;;;;;4.37;3.97;;;;;;;;;;6212963;28;20482;-67
2022/02/27 04:27:56;;;;;;;5.90;5.37;;;;;;;;;;6208214;28;20237;-68
2022/02/27 04:31:17;;;;;;;5.53;4.80;;;;;;;;;;6208888;28;20233;-68
2022/02/27 04:34:39;;;;;;;5.23;3.93;;;;;;;;;;6206254;28;20649;-67
2022/02/27 04:37:59;;;;;;;4.33;4.03;;;;;;;;;;6213316;28;20229;-67
2022/02/27 04:41:20;;;;;;;5.53;3.10;;;;;;;;;;6206618;28;20229;-68
2022/02/27 04:44:41;;;;;;;4.87;3.93;;;;;;;;;;6206893;28;20254;-68
2022/02/27 04:48:02;;;;;;;5.83;3.53;;;;;;;;;;6203766;28;20905;-68
2022/02/27 04:51:24;;;;;;;8.07;4.43;;;;;;;;;;6205367;28;20815;-67
2022/02/27 04:54:45;;;;;;;5.47;3.60;;;;;;;;;;6204505;28;20233;-68
2022/02/27 04:58:06;;;;;;;5.63;3.40;;;;;;;;;;6205654;28;21078;-67
2022/02/27 05:01:26;;;;;;;7.47;4.50;;;;;;;;;;6206179;28;20233;-67
2022/02/27 05:04:47;;;;;;;7.43;4.10;;;;;;;;;;6209298;28;20253;-68
2022/02/27 05:08:09;;;;;;;5.73;4.10;;;;;;;;;;6217542;28;20271;-67
2022/02/27 05:11:29;;;;;;;4.17;2.90;;;;;;;;;;6206673;28;20225;-67
2022/02/27 05:14:50;;;;;;;5.40;3.60;;;;;;;;;;6205491;28;20268;-67
2022/02/27 05:18:11;;;;;;;5.87;3.57;;;;;;;;;;6207110;28;20598;-68
2022/02/27 05:21:31;;;;;;;3.33;3.03;;;;;;;;;;6207341;28;20245;-67
2022/02/27 05:24:53;;;;;;;4.63;3.60;;;;;;;;;;6206703;28;20249;-67
2022/02/27 05:28:13;;;;;;;4.57;3.63;;;;;;;;;;6209452;28;20241;-67
2022/02/27 05:31:34;;;;;;;5.90;4.03;;;;;;;;;;6206041;28;20308;-68
2022/02/27 05:34:55;;;;;;;6.87;4.67;;;;;;;;;;6209207;28;20225;-68
2022/02/27 05:38:15;;;;;;;8.77;4.03;;;;;;;;;;6210054;28;20237;-67
2022/02/27 05:41:37;;;;;;;4.83;3.83;;;;;;;;;;6204088;28;20257;-67
2022/02/27 05:44:58;;;;;;;4.40;3.23;;;;;;;;;;6205414;28;20233;-67
2022/02/27 05:48:18;;;;;;;4.07;3.13;;;;;;;;;;6203673;28;20229;-66
2022/02/27 05:51:39;;;;;;;4.83;3.63;;;;;;;;;;6205977;28;20600;-67
2022/02/27 05:54:59;;;;;;;6.00;3.70;;;;;;;;;;6197750;28;20229;-67
2022/02/27 05:58:21;;;;;;;3.97;3.60;;;;;;;;;;6206036;28;20240;-67
2022/02/27 06:01:44;;;;;;;9.60;3.93;;;;;;;;;;6202320;28;20531;-67
2022/02/27 06:05:06;;;;;;;4.60;4.20;;;;;;;;;;6205080;28;20615;-68
2022/02/27 06:08:27;;;;;;;5.67;4.90;;;;;;;;;;6205720;28;20225;-68
2022/02/27 06:11:47;;;;;;;4.77;4.07;;;;;;;;;;6205022;28;20697;-68
2022/02/27 06:15:11;;;;;;;5.70;4.57;;;;;;;;;;6205851;28;20225;-68
2022/02/27 06:18:32;;;;;;;5.27;4.10;;;;;;;;;;6206366;28;20327;-68
2022/02/27 06:21:53;;;;;;;5.63;4.50;;;;;;;;;;6212591;28;20901;-68
2022/02/27 06:25:15;;;;;;;5.17;4.40;;;;;;;;;;6212552;28;20229;-68
2022/02/27 06:28:35;;;;;;;4.73;4.20;;;;;;;;;;6212675;28;20229;-69
2022/02/27 06:31:57;;;;;;;4.87;3.40;;;;;;;;;;6212614;28;20220;-68
2022/02/27 06:35:19;;;;;;;4.50;3.33;;;;;;;;;;6212115;28;20228;-68
2022/02/27 06:38:40;;;;;;;6.47;4.33;;;;;;;;;;6214982;28;20229;-68
2022/02/27 06:42:01;;;;;;;8.87;4.07;;;;;;;;;;6210659;28;20225;-68
2022/02/27 06:45:21;;;;;;;5.70;3.67;;;;;;;;;;6209438;28;20229;-67
2022/02/27 06:48:43;;;;;;;6.77;4.40;;;;;;;;;;6211634;28;20240;-68
2022/02/27 06:52:04;;;;;;;6.63;3.70;;;;;;;;;;6212145;28;20256;-68
2022/02/27 06:55:25;;;;;;;6.57;3.60;;;;;;;;;;6210454;28;20244;-69
2022/02/27 06:58:45;;;;;;;4.93;3.80;;;;;;;;;;6217288;28;20598;-68
2022/02/27 07:02:07;;;;;;;4.87;3.93;;;;;;;;;;6203673;28;20332;-68
2022/02/27 07:05:29;;;;;;;5.13;3.80;;;;;;;;;;6213159;28;20233;-68
2022/02/27 07:08:50;;;;;;;6.63;3.93;;;;;;;;;;6214639;28;20229;-69
2022/02/27 07:12:11;;;;;;;5.70;3.43;;;;;;;;;;6201860;28;20225;-69
2022/02/27 07:15:31;;;;;;;7.20;3.90;;;;;;;;;;6207155;28;25446;-68
2022/02/27 07:18:53;;;;;;;6.27;4.30;;;;;;;;;;6208654;28;20225;-68
2022/02/27 07:22:15;;;;;;;5.60;3.77;;;;;;;;;;6211717;28;20328;-68
2022/02/27 07:25:35;;;;;;;4.43;3.50;;;;;;;;;;6205787;28;20241;-68
2022/02/27 07:28:56;;;;;;;6.73;4.43;;;;;;;;;;6211248;28;20233;-67
2022/02/27 07:32:17;;;;;;;9.90;4.20;;;;;;;;;;6205342;28;20249;-68
2022/02/27 07:35:37;;;;;;;8.50;4.80;;;;;;;;;;6212279;28;20326;-67
2022/02/27 07:38:59;;;;;;;4.63;4.00;;;;;;;;;;6210585;28;20629;-67
2022/02/27 07:42:19;;;;;;;5.87;4.57;;;;;;;;;;6210989;28;20229;-68
2022/02/27 07:45:39;;;;;;;5.73;4.30;;;;;;;;;;6208211;28;20709;-68
2022/02/27 07:49:00;;;;;;;6.47;4.40;;;;;;;;;;6202749;28;20611;-68
2022/02/27 07:52:20;;;;;;;6.00;4.03;;;;;;;;;;6202416;28;20332;-67
2022/02/27 07:55:42;;;;;;;7.90;4.73;;;;;;;;;;6209232;28;20229;-68
2022/02/27 07:59:03;;;;;;;6.17;4.67;;;;;;;;;;6207130;28;20347;-67
2022/02/27 08:02:23;;;;;;;6.30;4.43;;;;;;;;;;6203042;28;20233;-66
2022/02/27 08:05:44;;;;;;;10.03;4.87;;;;;;;;;;6204142;28;20233;-68
2022/02/27 08:09:05;;;;;;;7.13;4.20;;;;;;;;;;6207728;28;20228;-67
2022/02/27 08:12:27;;;;;;;7.07;4.33;;;;;;;;;;6200038;28;20229;-67
2022/02/27 08:15:48;;;;;;;7.30;4.30;;;;;;;;;;6206470;28;20318;-68
2022/02/27 08:19:08;;;;;;;8.03;4.33;;;;;;;;;;6203886;28;20245;-68
2022/02/27 08:22:29;;;;;;;9.37;5.30;;;;;;;;;;6201170;28;20608;-68
2022/02/27 08:25:50;;;;;;;5.20;4.47;;;;;;;;;;6196813;28;20226;-68
2022/02/27 08:29:12;;;;;;;7.70;5.30;;;;;;;;;;6195972;28;20231;-68
2022/02/27 08:32:32;;;;;;;7.30;4.00;;;;;;;;;;6181258;28;20276;-69
2022/02/27 08:35:53;;;;;;;7.40;5.00;;;;;;;;;;6184412;28;20268;-66
2022/02/27 08:39:14;;;;;;;9.93;5.43;;;;;;;;;;6192578;28;20249;-66
2022/02/27 08:42:34;;;;;;;7.37;5.60;;;;;;;;;;6193460;28;20297;-68
2022/02/27 08:45:56;;;;;;;6.30;5.33;;;;;;;;;;6197876;28;20659;-68
2022/02/27 08:49:17;;;;;;;7.13;5.67;;;;;;;;;;6196086;28;20320;-67
2022/02/27 08:52:38;;;;;;;11.63;5.87;;;;;;;;;;6197476;28;20236;-67
2022/02/27 08:55:58;;;;;;;7.77;5.33;;;;;;;;;;6196599;28;20244;-67
2022/02/27 08:59:19;;;;;;;10.47;6.70;;;;;;;;;;6195537;28;20230;-68
2022/02/27 09:02:41;;;;;;;8.57;5.00;;;;;;;;;;6188948;28;20237;-67
2022/02/27 09:06:02;;;;;;;7.70;6.43;;;;;;;;;;6203425;28;20225;-67
2022/02/27 09:09:23;;;;;;;10.70;7.10;;;;;;;;;;6206609;28;20662;-67
2022/02/27 09:12:45;;;;;;;11.83;6.90;;;;;;;;;;6208230;28;20521;-67
2022/02/27 09:16:06;;;;;;;7.30;5.90;;;;;;;;;;6207280;28;20233;-68
2022/02/27 09:19:27;;;;;;;7.73;5.23;;;;;;;;;;6209631;28;20229;-68
2022/02/27 09:22:48;;;;;;;8.60;6.33;;;;;;;;;;6207290;28;20634;-68
2022/02/27 09:26:09;;;;;;;10.13;7.27;;;;;;;;;;6203916;28;20320;-67
2022/02/27 09:29:29;;;;;;;11.80;6.10;;;;;;;;;;6211605;28;20252;-68
2022/02/27 09:32:49;;;;;;;6.37;5.57;;;;;;;;;;6210289;28;20252;-69
2022/02/27 09:36:11;;;;;;;9.07;6.03;;;;;;;;;;6207602;28;20236;-67
2022/02/27 09:39:32;;;;;;;8.03;5.80;;;;;;;;;;6205145;28;20237;-68
2022/02/27 09:42:53;;;;;;;6.13;5.50;;;;;;;;;;6199089;28;20229;-67
2022/02/27 09:46:14;;;;;;;7.83;6.07;;;;;;;;;;6208587;28;20535;-67
2022/02/27 09:49:35;;;;;;;9.07;6.53;;;;;;;;;;6196501;28;20233;-69
2022/02/27 09:52:58;;;;;;;6.87;5.73;;;;;;;;;;6181967;28;20319;-68
2022/02/27 09:56:18;;;;;;;9.37;6.23;;;;;;;;;;6191811;28;20225;-69
2022/02/27 09:59:39;;;;;;;8.37;5.17;;;;;;;;;;6206252;28;20233;-68
2022/02/27 10:03:04;;;;;;;9.30;5.77;;;;;;;;;;6201335;28;20221;-68
2022/02/27 10:06:24;;;;;;;8.60;5.20;;;;;;;;;;6204700;28;20225;-68
2022/02/27 10:09:46;;;;;;;5.73;5.20;;;;;;;;;;6204179;28;20638;-68
2022/02/27 10:13:07;;;;;;;9.05;5.95;;;;;;;;;;6207039;28;20240;-69
2022/02/27 10:16:28;;;;;;;7.78;4.50;;;;;;;;;;6206987;28;20317;-67
2022/02/27 10:19:51;;;;;;;7.20;5.25;;;;;;;;;;6202999;28;20326;-69
2022/02/27 10:23:11;;;;;;;10.23;5.78;;;;;;;;;;6203969;28;20229;-67
2022/02/27 10:26:35;;;;;;;7.00;6.15;;;;;;;;;;6192507;28;20257;-67
2022/02/27 10:29:57;;;;;;;10.55;5.47;;;;;;;;;;6199003;28;20261;-67
2022/02/27 10:33:22;;;;;;;7.13;4.53;;;;;;;;;;6195602;28;20233;-68
2022/02/27 10:36:56;;;;;;;9.63;4.88;;;;;;;;;;6199158;28;20232;-68
2022/02/27 10:40:29;;;;;;;7.60;4.57;;;;;;;;;;6194244;28;20764;-68
2022/02/27 10:43:53;;;;;;;5.55;4.80;;;;;;;;;;6199992;28;20232;-68
2022/02/27 10:47:15;;;;;;;9.00;4.82;;;;;;;;;;6196019;28;20233;-67
2022/02/27 10:50:36;;;;;;;6.75;4.55;;;;;;;;;;6196175;28;20233;-67
2022/02/27 10:53:56;;;;;;;6.85;4.97;;;;;;;;;;6199898;28;20256;-67
2022/02/27 10:57:30;;;;;;;6.60;4.88;;;;;;;;;;6198905;28;20234;-68
2022/02/27 11:00:52;;;;;;;5.85;5.05;;;;;;;;;;6196871;28;20599;-68
2022/02/27 11:04:13;;;;;;;6.05;5.00;;;;;;;;;;6202396;28;20397;-70
2022/02/27 11:07:33;;;;;;;7.05;4.32;;;;;;;;;;6213385;28;20225;-68
2022/02/27 11:10:54;;;;;;;4.97;4.25;;;;;;;;;;6205815;28;20236;-70
2022/02/27 11:14:15;;;;;;;6.07;3.88;;;;;;;;;;6206451;28;22141;-68
2022/02/27 11:17:38;;;;;;;8.00;4.35;;;;;;;;;;6208593;28;20550;-67
2022/02/27 11:20:59;;;;;;;6.65;5.22;;;;;;;;;;6211604;28;20651;-67
2022/02/27 11:24:20;;;;;;;5.57;4.80;;;;;;;;;;6207815;28;20229;-70
2022/02/27 11:27:43;;;;;;;4.13;3.70;;;;;;;;;;6208565;28;20233;-70
2022/02/27 11:31:04;;;;;;;6.30;4.43;;;;;;;;;;6210944;28;20324;-68
2022/02/27 11:34:26;;;;;;;6.93;4.53;;;;;;;;;;6212256;28;20603;-67
2022/02/27 11:37:47;;;;;;;5.88;4.28;;;;;;;;;;6211129;28;20556;-70
2022/02/27 11:41:12;;;;;;;5.68;3.95;;;;;;;;;;6210978;28;20237;-69
2022/02/27 11:44:33;;;;;;;7.47;4.13;;;;;;;;;;6207168;28;20237;-65
2022/02/27 11:47:55;;;;;;;7.00;3.90;;;;;;;;;;6209227;28;20741;-69
2022/02/27 11:51:30;;;;;;;5.68;3.83;;;;;;;;;;6207081;28;20245;-68
2022/02/27 11:54:53;;;;;;;5.10;3.17;;;;;;;;;;6209963;28;20244;-68
2022/02/27 11:58:18;;;;;;;4.50;3.65;;;;;;;;;;6205366;28;20236;-69
2022/02/27 12:01:54;;;;;;;5.55;3.92;;;;;;;;;;6204469;28;20691;-69
2022/02/27 12:05:17;;;;;;;4.25;3.50;;;;;;;;;;6204788;28;20320;-69
2022/02/27 12:08:41;;;;;;;3.38;2.92;;;;;;;;;;6201069;28;20225;-68
2022/02/27 12:12:03;;;;;;;6.15;4.13;;;;;;;;;;6194643;28;20238;-68
2022/02/27 12:15:25;;;;;;;5.63;3.45;;;;;;;;;;6207889;28;20229;-68
2022/02/27 12:18:46;;;;;;;4.13;3.65;;;;;;;;;;6206787;28;20513;-68
2022/02/27 12:22:07;;;;;;;5.53;3.78;;;;;;;;;;6209303;28;20221;-68
2022/02/27 12:25:33;;;;;;;4.80;3.38;;;;;;;;;;6203429;28;20611;-69
2022/02/27 12:28:58;;;;;;;4.90;4.30;;;;;;;;;;6203374;28;20249;-69
2022/02/27 12:32:22;;;;;;;5.15;3.60;;;;;;;;;;6197691;28;20241;-68
2022/02/27 12:35:48;;;;;;;6.55;4.50;;;;;;;;;;6197535;28;20265;-68
2022/02/27 12:39:10;;;;;;;6.78;3.47;;;;;;;;;;6209216;28;20347;-68
2022/02/27 12:42:32;;;;;;;4.88;3.50;;;;;;;;;;6203492;28;20237;-68
2022/02/27 12:45:54;;;;;;;4.88;3.10;;;;;;;;;;6208304;28;20241;-71
2022/02/27 12:52:57;;;;;;;3.92;3.40;;;;;;;;;;6206377;28;20233;-70
2022/02/27 12:56:23;;;;;;;5.53;4.70;;;;;;;;;;6191024;28;20280;-71
2022/02/27 12:59:45;;;;;;;6.50;3.40;;;;;;;;;;6203443;28;20229;-69
2022/02/27 13:03:10;;;;;;;5.30;4.50;;;;;;;;;;6195792;28;20252;-68
2022/02/27 13:06:34;;;;;;;5.28;4.10;;;;;;;;;;6199454;28;20319;-68
2022/02/27 13:09:55;;;;;;;3.88;2.97;;;;;;;;;;6207064;28;20351;-69
2022/02/27 13:13:16;;;;;;;6.75;4.05;;;;;;;;;;6205959;28;20741;-68
2022/02/27 13:16:37;;;;;;;5.53;4.00;;;;;;;;;;6196754;28;20528;-69
2022/02/27 13:20:04;;;;;;;3.20;3.00;;;;;;;;;;6197930;28;20323;-68
2022/02/27 13:23:27;;;;;;;3.85;3.55;;;;;;;;;;6202158;28;20236;-67
2022/02/27 13:26:47;;;;;;;5.85;4.20;;;;;;;;;;6198121;28;20237;-69
2022/02/27 13:30:09;;;;;;;4.00;3.38;;;;;;;;;;6190498;28;20236;-69
2022/02/27 13:33:30;;;;;;;7.47;3.73;;;;;;;;;;6192265;28;20233;-69
2022/02/27 13:36:52;;;;;;;4.57;3.87;;;;;;;;;;6188539;28;20631;-69
2022/02/27 13:40:18;;;;;;;5.63;3.13;;;;;;;;;;6192481;28;20230;-69
2022/02/27 13:43:40;;;;;;;6.63;3.93;;;;;;;;;;6199253;28;20229;-69
2022/02/27 13:47:00;;;;;;;5.13;4.40;;;;;;;;;;6183251;28;20226;-68
2022/02/27 13:50:22;;;;;;;8.33;4.70;;;;;;;;;;6194814;28;20520;-68
2022/02/27 13:53:44;;;;;;;4.33;3.93;;;;;;;;;;6196789;28;20233;-68
2022/02/27 13:57:05;;;;;;;6.63;3.70;;;;;;;;;;6198306;28;20237;-69
2022/02/27 14:00:26;;;;;;;7.07;5.90;;;;;;;;;;6197437;28;20234;-69
2022/02/27 14:03:48;;;;;;;7.40;4.90;;;;;;;;;;6199868;28;20253;-69
2022/02/27 14:07:15;;;;;;;7.67;3.53;;;;;;;;;;6201441;28;20233;-69
2022/02/27 14:10:37;;;;;;;4.77;3.63;;;;;;;;;;6192787;28;20241;-67
2022/02/27 14:14:03;;;;;;;4.37;3.20;;;;;;;;;;6196470;28;20229;-69
2022/02/27 14:17:24;;;;;;;6.27;5.17;;;;;;;;;;6194587;28;20237;-70
2022/02/27 14:20:45;;;;;;;5.03;4.00;;;;;;;;;;6195257;28;20233;-69
2022/02/27 14:24:06;;;;;;;3.80;2.80;;;;;;;;;;6194785;28;20234;-69
2022/02/27 14:27:29;;;;;;;5.93;4.60;;;;;;;;;;6195450;28;20237;-70
2022/02/27 14:30:50;;;;;;;6.00;3.17;;;;;;;;;;6194385;28;20320;-68
2022/02/27 14:34:11;;;;;;;9.27;5.50;;;;;;;;;;6195401;28;20499;-69
2022/02/27 14:37:31;;;;;;;5.00;3.00;;;;;;;;;;6199479;28;20253;-69
2022/02/27 14:40:52;;;;;;;4.30;3.23;;;;;;;;;;6212312;28;20233;-68
2022/02/27 14:44:14;;;;;;;3.57;3.00;;;;;;;;;;6211541;28;20229;-68
2022/02/27 14:47:35;;;;;;;4.63;2.90;;;;;;;;;;6213073;28;20225;-67
2022/02/27 14:50:57;;;;;;;4.30;2.87;;;;;;;;;;6217470;28;20810;-68
2022/02/27 14:54:17;;;;;;;4.60;3.20;;;;;;;;;;6213234;28;20225;-69
2022/02/27 14:57:38;;;;;;;6.27;3.13;;;;;;;;;;6214725;28;20344;-69
2022/02/27 15:01:01;;;;;;;4.43;2.90;;;;;;;;;;6215177;28;20229;-69
2022/02/27 15:04:21;;;;;;;5.13;3.30;;;;;;;;;;6216949;28;20245;-68
2022/02/27 15:07:43;;;;;;;6.07;3.20;;;;;;;;;;6213885;28;20221;-68
2022/02/27 15:11:03;;;;;;;4.20;3.00;;;;;;;;;;6216069;28;20593;-69
2022/02/27 15:14:24;;;;;;;6.03;2.97;;;;;;;;;;6198409;28;20233;-68
2022/02/27 15:17:46;;;;;;;3.97;3.20;;;;;;;;;;6211568;28;20265;-68
2022/02/27 15:21:08;;;;;;;4.00;3.00;;;;;;;;;;6216685;28;20252;-69
2022/02/27 15:24:28;;;;;;;5.20;2.70;;;;;;;;;;6216745;28;20237;-69
2022/02/27 15:27:49;;;;;;;6.50;3.87;;;;;;;;;;6206241;28;20233;-69
2022/02/27 15:31:09;;;;;;;6.47;3.53;;;;;;;;;;6216251;28;20228;-70
2022/02/27 15:34:31;;;;;;;6.07;3.83;;;;;;;;;;6211687;28;20237;-68
2022/02/27 15:37:51;;;;;;;4.73;2.87;;;;;;;;;;6212159;28;20237;-68
2022/02/27 15:41:12;;;;;;;5.40;3.37;;;;;;;;;;6211950;28;20237;-68
2022/02/27 15:44:33;;;;;;;7.50;3.83;;;;;;;;;;6215587;28;20614;-70
2022/02/27 15:47:55;;;;;;;12.37;6.77;;;;;;;;;;6209147;28;20329;-69
2022/02/27 15:51:18;;;;;;;6.27;4.00;;;;;;;;;;6211711;28;20233;-69
2022/02/27 15:54:38;;;;;;;6.10;3.93;;;;;;;;;;6201347;28;20548;-69
2022/02/27 15:57:59;;;;;;;6.50;3.70;;;;;;;;;;6209324;28;20244;-68
2022/02/27 16:01:19;;;;;;;6.83;3.47;;;;;;;;;;6194937;28;20241;-68
2022/02/27 16:04:40;;;;;;;5.13;3.93;;;;;;;;;;6197973;28;20230;-69
2022/02/27 16:08:02;;;;;;;6.80;3.67;;;;;;;;;;6197178;28;20256;-69
2022/02/27 16:11:22;;;;;;;6.57;4.57;;;;;;;;;;6209027;28;20237;-69
2022/02/27 16:14:43;;;;;;;5.77;4.37;;;;;;;;;;6203690;28;20241;-69
2022/02/27 16:18:06;;;;;;;7.40;3.30;;;;;;;;;;6191453;28;20233;-68
2022/02/27 16:21:26;;;;;;;6.90;3.70;;;;;;;;;;6206480;28;20233;-69
2022/02/27 16:24:49;;;;;;;6.53;4.70;;;;;;;;;;6201903;28;20460;-68
2022/02/27 16:28:09;;;;;;;5.80;3.50;;;;;;;;;;6203245;28;20225;-69
2022/02/27 16:31:30;;;;;;;6.73;4.87;;;;;;;;;;6204487;28;20300;-69
2022/02/27 16:34:51;;;;;;;6.30;4.37;;;;;;;;;;6211146;28;20225;-69
2022/02/27 16:38:12;;;;;;;9.40;4.07;;;;;;;;;;6204256;28;20250;-69
2022/02/27 16:41:34;;;;;;;5.90;4.50;;;;;;;;;;6193431;28;20237;-69
2022/02/27 16:44:55;;;;;;;8.13;5.10;;;;;;;;;;6208317;28;20237;-69
2022/02/27 16:48:16;;;;;;;6.70;4.30;;;;;;;;;;6197060;28;20237;-69
2022/02/27 16:51:36;;;;;;;7.63;5.23;;;;;;;;;;6208325;28;20324;-70
2022/02/27 16:54:57;;;;;;;8.67;5.10;;;;;;;;;;6199060;28;20229;-69
2022/02/27 16:58:19;;;;;;;8.83;5.43;;;;;;;;;;6200641;28;20260;-70
2022/02/27 17:01:40;;;;;;;6.27;4.77;;;;;;;;;;6197313;28;20249;-69
2022/02/27 17:05:00;;;;;;;8.93;5.97;;;;;;;;;;6197406;28;20229;-69
2022/02/27 17:08:21;;;;;;;5.40;4.50;;;;;;;;;;6197268;28;20229;-69
2022/02/27 17:11:42;;;;;;;7.90;5.37;;;;;;;;;;6201166;28;20225;-69
2022/02/27 17:15:05;;;;;;;10.63;6.37;;;;;;;;;;6190794;28;21440;-69
2022/02/27 17:18:26;;;;;;;7.00;5.13;;;;;;;;;;6198955;28;20232;-70
2022/02/27 17:21:47;;;;;;;10.40;5.63;;;;;;;;;;6196843;28;20540;-69
2022/02/27 17:25:08;;;;;;;6.10;4.87;;;;;;;;;;6188856;28;20238;-69
2022/02/27 17:28:29;;;;;;;13.77;6.70;;;;;;;;;;6194994;28;20230;-68
2022/02/27 17:31:51;;;;;;;11.27;10.10;;;;;;;;;;6196964;28;20323;-69
2022/02/27 17:35:11;;;;;;;11.83;6.47;;;;;;;;;;6189193;28;20238;-69
2022/02/27 17:38:32;;;;;;;14.63;6.33;;;;;;;;;;6197421;28;20259;-69
2022/02/27 17:41:53;;;;;;;6.77;5.00;;;;;;;;;;6172297;28;20240;-67
2022/02/27 17:45:15;;;;;;;10.97;6.23;;;;;;;;;;6188448;28;20217;-69
2022/02/27 17:48:37;;;;;;;10.33;5.03;;;;;;;;;;6180819;28;20233;-70
2022/02/27 17:51:57;;;;;;;7.60;6.20;;;;;;;;;;6195378;28;20245;-69
2022/02/27 17:55:18;;;;;;;7.73;5.13;;;;;;;;;;6194941;28;20233;-70
2022/02/27 17:58:38;;;;;;;7.50;4.07;;;;;;;;;;6189634;28;21439;-69
2022/02/27 18:01:59;;;;;;;7.73;5.27;;;;;;;;;;6192223;28;20233;-68
2022/02/27 18:05:21;;;;;;;8.33;5.13;;;;;;;;;;6201886;28;20236;-69
2022/02/27 18:08:41;;;;;;;7.67;4.90;;;;;;;;;;6202184;28;20248;-69
2022/02/27 18:12:02;;;;;;;7.30;5.27;;;;;;;;;;6203822;28;20517;-69
2022/02/27 18:15:24;;;;;;;8.93;5.30;;;;;;;;;;6205227;28;20267;-69
2022/02/27 18:18:44;;;;;;;7.53;6.53;;;;;;;;;;6205666;28;21146;-68
2022/02/27 18:22:06;;;;;;;9.83;6.00;;;;;;;;;;6212599;28;20316;-68
2022/02/27 18:25:30;;;;;;;7.60;6.03;;;;;;;;;;6210043;28;20233;-68
2022/02/27 18:28:51;;;;;;;6.73;5.93;;;;;;;;;;6216140;28;20232;-69
2022/02/27 18:32:12;;;;;;;10.83;7.00;;;;;;;;;;6203914;28;20232;-69
2022/02/27 18:35:33;;;;;;;11.90;8.03;;;;;;;;;;6200501;28;20327;-69
2022/02/27 18:38:56;;;;;;;11.77;7.90;;;;;;;;;;6208305;28;20237;-69
2022/02/27 18:42:17;;;;;;;11.27;7.73;;;;;;;;;;6209794;28;20229;-70
2022/02/27 18:45:37;;;;;;;10.17;7.30;;;;;;;;;;6211141;28;20241;-67
2022/02/27 18:48:58;;;;;;;9.47;6.20;;;;;;;;;;6216933;28;20221;-68
2022/02/27 18:52:19;;;;;;;7.73;6.97;;;;;;;;;;6216784;28;20228;-69
2022/02/27 18:55:41;;;;;;;10.83;6.53;;;;;;;;;;6210271;28;20237;-69
2022/02/27 18:59:02;;;;;;;10.27;6.93;;;;;;;;;;6215347;28;20602;-69
2022/02/27 19:02:22;;;;;;;7.90;7.10;;;;;;;;;;6201924;28;20810;-68
2022/02/27 19:05:43;;;;;;;7.67;5.77;;;;;;;;;;6210446;28;20224;-69
2022/02/27 19:09:04;;;;;;;8.27;5.70;;;;;;;;;;6213890;28;20780;-70
2022/02/27 19:12:25;;;;;;;12.27;7.97;;;;;;;;;;6214405;28;20248;-68
2022/02/27 19:15:46;;;;;;;8.83;6.33;;;;;;;;;;6212070;28;20781;-69
2022/02/27 19:19:07;;;;;;;8.17;5.33;;;;;;;;;;6217252;28;20249;-68
2022/02/27 19:22:28;;;;;;;6.87;5.17;;;;;;;;;;6207906;28;20245;-69
2022/02/27 19:25:49;;;;;;;9.97;5.83;;;;;;;;;;6209454;28;20233;-68
2022/02/27 19:29:10;;;;;;;7.53;5.10;;;;;;;;;;6207865;28;20253;-70
2022/02/27 19:32:31;;;;;;;6.67;6.03;;;;;;;;;;6211411;28;20225;-69
2022/02/27 19:35:51;;;;;;;7.60;5.87;;;;;;;;;;6197785;28;20245;-68
2022/02/27 19:39:12;;;;;;;8.87;5.33;;;;;;;;;;6205643;28;20233;-68
2022/02/27 19:42:32;;;;;;;10.90;5.23;;;;;;;;;;6193092;28;20237;-69
2022/02/27 19:45:54;;;;;;;6.63;5.20;;;;;;;;;;6209461;28;20232;-69
2022/02/27 19:49:15;;;;;;;8.10;6.13;;;;;;;;;;6203975;28;20229;-69
2022/02/27 19:52:36;;;;;;;7.13;5.03;;;;;;;;;;6207869;28;20606;-69
2022/02/27 19:55:56;;;;;;;10.53;5.60;;;;;;;;;;6205050;28;20229;-70
2022/02/27 19:59:16;;;;;;;6.77;6.00;;;;;;;;;;6213366;28;20241;-68
2022/02/27 20:02:38;;;;;;;9.77;5.43;;;;;;;;;;6207247;28;20233;-68
2022/02/27 20:05:59;;;;;;;10.27;5.53;;;;;;;;;;6198487;28;20233;-69
2022/02/27 20:12:57;;;;;;;8.03;5.70;;;;;;;;;;6194808;28;20587;-69